Time,TemperatureF,DewpointF,PressureIn,WindDirection,WindDirectionDegrees,WindSpeedMPH,WindSpeedGustMPH,Humidity,HourlyPrecipIn,Conditions,Clouds,dailyrainin,SoftwareType,DateUTC
2013-09-09 00:00:00,55.0,48.0,30.10,South,170,26.0,36.0,77,-99.99,,,-99.99,,2013-09-09 08:00:00,
2013-09-09 00:52:00,55.0,48.0,30.10,South,170,26.0,36.0,77,-99.99,,,-99.99,,2013-09-09 08:52:00,
2013-09-09 01:00:00,55.0,48.0,30.10,South,180,25.0,37.0,77,-99.99,,,-99.99,,2013-09-09 09:00:00,
2013-09-09 01:53:00,55.0,48.0,30.10,South,180,25.0,37.0,77,-99.99,,,-99.99,,2013-09-09 09:53:00,
2013-09-09 03:00:00,55.0,47.0,30.11,South,180,25.0,34.0,74,-99.99,,,-99.99,,2013-09-09 11:00:00,
2013-09-09 03:52:00,55.0,47.0,30.11,South,180,25.0,34.0,74,-99.99,,,-99.99,,2013-09-09 11:52:00,
2013-09-09 04:00:00,55.0,47.0,30.10,South,180,24.0,33.0,74,-99.99,,,-99.99,,2013-09-09 12:00:00,
2013-09-09 04:51:00,55.0,47.0,30.10,South,180,24.0,33.0,74,-99.99,,,-99.99,,2013-09-09 12:51:00,
2013-09-09 05:00:00,55.0,48.0,30.09,South,190,23.0,36.0,77,-99.99,,,-99.99,,2013-09-09 13:00:00,
2013-09-09 05:52:00,55.0,48.0,30.09,South,190,23.0,36.0,77,-99.99,,,-99.99,,2013-09-09 13:52:00,
2013-09-09 06:00:00,54.0,49.0,30.10,South,180,26.0,33.0,83,-99.99,,,-99.99,,2013-09-09 14:00:00,
2013-09-09 06:52:00,54.0,49.0,30.10,South,180,26.0,33.0,83,-99.99,,,-99.99,,2013-09-09 14:52:00,
2013-09-09 07:00:00,54.0,48.0,30.10,South,180,24.0,33.0,80,-99.99,,,-99.99,,2013-09-09 15:00:00,
2013-09-09 07:53:00,54.0,48.0,30.10,South,180,24.0,33.0,80,-99.99,,,-99.99,,2013-09-09 15:53:00,
2013-09-09 08:00:00,54.0,49.0,30.10,South,190,23.0,32.0,83,-99.99,,,-99.99,,2013-09-09 16:00:00,
2013-09-09 08:54:00,54.0,49.0,30.10,South,190,23.0,32.0,83,-99.99,,,-99.99,,2013-09-09 16:54:00,
2013-09-09 09:00:00,53.0,48.0,30.11,South,190,25.0,33.0,82,-99.99,,,-99.99,,2013-09-09 17:00:00,
2013-09-09 09:52:00,53.0,48.0,30.11,South,190,25.0,33.0,82,-99.99,,,-99.99,,2013-09-09 17:52:00,
2013-09-09 10:00:00,53.0,48.0,30.12,South,190,23.0,31.0,82,-99.99,,,-99.99,,2013-09-09 18:00:00,
2013-09-09 10:52:00,53.0,48.0,30.12,South,190,23.0,31.0,82,-99.99,,,-99.99,,2013-09-09 18:52:00,
2013-09-09 11:00:00,53.0,48.0,30.10,SSW,200,26.0,36.0,82,-99.99,,,-99.99,,2013-09-09 19:00:00,
2013-09-09 11:52:00,53.0,48.0,30.10,SSW,200,26.0,36.0,82,-99.99,,,-99.99,,2013-09-09 19:52:00,
2013-09-09 12:00:00,54.0,48.0,30.12,SSW,200,24.0,32.0,80,-99.99,,,-99.99,,2013-09-09 20:00:00,
2013-09-09 12:52:00,54.0,48.0,30.12,SSW,200,24.0,32.0,80,-99.99,,,-99.99,,2013-09-09 20:52:00,
2013-09-09 13:00:00,55.0,47.0,30.13,South,180,17.0,29.0,74,-99.99,,,-99.99,,2013-09-09 21:00:00,
2013-09-09 13:54:00,55.0,47.0,30.13,South,180,17.0,29.0,74,-99.99,,,-99.99,,2013-09-09 21:54:00,
2013-09-09 14:00:00,55.0,49.0,30.13,SW,230,14.0,24.0,79,-99.99,,,-99.99,,2013-09-09 22:00:00,
2013-09-09 14:54:00,55.0,49.0,30.13,SW,230,14.0,24.0,79,-99.99,,,-99.99,,2013-09-09 22:54:00,
2013-09-09 15:00:00,56.0,47.0,30.13,South,180,14.0,23.0,71,-99.99,,,-99.99,,2013-09-09 23:00:00,
2013-09-09 15:52:00,56.0,47.0,30.13,South,180,14.0,23.0,71,-99.99,,,-99.99,,2013-09-09 23:52:00,
2013-09-09 16:00:00,56.0,48.0,30.13,South,180,13.0,21.0,74,-99.99,,,-99.99,,2013-09-10 00:00:00,
2013-09-09 16:52:00,56.0,48.0,30.13,South,180,13.0,21.0,74,-99.99,,,-99.99,,2013-09-10 00:52:00,
2013-09-09 17:00:00,57.0,47.0,30.12,South,180,10.0,18.0,68,-99.99,,,-99.99,,2013-09-10 01:00:00,
2013-09-09 17:52:00,57.0,47.0,30.12,South,180,10.0,18.0,68,-99.99,,,-99.99,,2013-09-10 01:52:00,
2013-09-09 18:00:00,56.0,46.0,30.11,SSW,200,18.0,21.0,69,-99.99,,,-99.99,,2013-09-10 02:00:00,
2013-09-09 18:52:00,56.0,46.0,30.11,SSW,200,18.0,21.0,69,-99.99,,,-99.99,,2013-09-10 02:52:00,
2013-09-09 19:00:00,56.0,46.0,30.11,South,180,17.0,21.0,69,-99.99,,,-99.99,,2013-09-10 03:00:00,
2013-09-09 19:54:00,56.0,46.0,30.11,South,180,17.0,21.0,69,-99.99,,,-99.99,,2013-09-10 03:54:00,
2013-09-09 20:00:00,55.0,46.0,30.11,South,190,14.0,21.0,71,-99.99,,,-99.99,,2013-09-10 04:00:00,
2013-09-09 20:53:00,55.0,46.0,30.11,South,190,14.0,21.0,71,-99.99,,,-99.99,,2013-09-10 04:53:00,
2013-09-09 21:00:00,54.0,48.0,30.11,South,190,15.0,18.0,80,-99.99,,,-99.99,,2013-09-10 05:00:00,
2013-09-09 21:53:00,54.0,48.0,30.11,South,190,15.0,18.0,80,-99.99,,,-99.99,,2013-09-10 05:53:00,
2013-09-09 22:00:00,53.0,47.0,30.11,South,170,15.0,21.0,79,-99.99,,,-99.99,,2013-09-10 06:00:00,
2013-09-09 22:51:00,53.0,47.0,30.11,South,170,15.0,21.0,79,-99.99,,,-99.99,,2013-09-10 06:51:00,
2013-09-09 23:00:00,53.0,47.0,30.10,South,180,10.0,18.0,79,-99.99,,,-99.99,,2013-09-10 07:00:00,
2013-09-09 23:52:00,53.0,47.0,30.10,South,180,10.0,18.0,79,-99.99,,,-99.99,,2013-09-10 07:52:00,